Elev ft 46.57 °N, 119.6 °W

Hanford, USA

Hanford Station | Report | Change

5:24 AM PDT on August 23, 2017 (GMT -0700) |

° | °
68 F
Feels like 68°

Partly Cloudy

N
3

Wind SW

Additional Conditions
Pressure
-
Visibility
10 miles
Clouds
Clear
Dew Point
-
Humidity
58%
Rainfall
-
Snow Depth
0 in
METAR K1YT 231158Z AUTO 08003KT 10SM CLR 19/10 A2993 RMK AO2 SLPNO T01940096 10235 20182 51001 $
Astronomy
Sun
Rise
Set
Actual Time
6:08 AM
7:56 PM
Civil Twilight
5:36 AM
8:28 PM
Nautical Twilight
4:57 AM
9:07 PM
Astronomical Twilight
4:14 AM
9:50 PM
Length of Visible Light
14 h 51 m
Length of Day
13 h 47 m
Tomorrow will be 3 minutes 5 seconds shorter
Moon
8:15 AM
9:08 PM
waxing crescent
5% of the Moon is Illuminated
Aug 29
Waxing Half First Qtr
Sep 6
Full Moon
Sep 13
Waning Half Last Qtr
Sep 20
New Moon
Station History
 
Forecast
Average *
Range *
Temperature
High
-
-
- to -
Low
-
-
- to -
Precipitation
Rain
-
-
- to -
Snow
-
-
Dew Point
Low
-
-
- to -
High
-
-
- to -
 
Actual
Average *
Record
Temperature
High
-
89 °F
104 °F (1961)
Low
-
64 °F
46 °F (1960)
Today's Extremes
Extremes data not available
Category 6

Personal Eclipse Weather: Impacts on the Atmosphere

Bob Henson


Section: Miscellaneous

Stations
Nearby Weather Stations
There are no personal weather stations in this area.